Time;durP1;ratioP1;P1;durP2;ratioP2;P2;SDS_P1;SDS_P2;PMS_P1;PMS_P2;Temp;Humidity;BMP_temperature;BMP_pressure;BME280_temperature;BME280_humidity;BME280_pressure;Samples;Min_cycle;Max_cycle;Signal;HPM_P1;HPM_P2
2023/02/02 00:06:41;;;;;;;35.17;5.95;;;4.40;99.90;;;;;;7376676;19;20480;-88
2023/02/02 00:10:40;;;;;;;;;;;;;;;;;;;;;
2023/02/02 00:13:37;;;;;;;29.75;5.93;;;4.30;99.90;;;;;;7378807;19;20396;-89
2023/02/02 00:24:38;;;;;;;30.52;5.60;;;4.60;99.90;;;;;;7379993;19;20014;-89
2023/02/02 00:27:52;;;;;;;;;;;;;;;;;;;;;
2023/02/02 00:31:46;;;;;;;30.80;4.72;;;4.60;99.90;;;;;;7381322;19;20056;-89
2023/02/02 00:40:07;;;;;;;25.00;5.13;;;4.70;99.90;;;;;;7375846;19;20371;-89
2023/02/02 00:43:25;;;;;;;27.13;5.50;;;4.80;99.90;;;;;;7372990;19;20026;-89
2023/02/02 00:46:29;;;;;;;27.55;5.30;;;4.90;99.90;;;;;;7376544;19;20286;-89
2023/02/02 00:49:02;;;;;;;25.27;4.65;;;4.90;99.90;;;;;;7379894;19;20695;-89
2023/02/02 00:52:00;;;;;;;28.27;5.47;;;5.00;99.90;;;;;;7382773;19;20018;-89
2023/02/02 00:54:41;;;;;;;25.92;4.85;;;5.00;99.90;;;;;;7383825;19;20050;-89
2023/02/02 00:57:33;;;;;;;28.02;4.47;;;5.00;99.90;;;;;;7378951;19;20486;-89
2023/02/02 01:00:54;;;;;;;36.47;5.25;;;5.10;99.90;;;;;;7377853;19;20116;-90
2023/02/02 01:03:28;;;;;;;30.48;4.60;;;5.10;99.90;;;;;;7376152;19;20018;-89
2023/02/02 01:06:09;;;;;;;25.77;4.50;;;5.10;99.90;;;;;;7377502;19;20024;-89
2023/02/02 01:08:40;;;;;;;31.17;4.85;;;5.10;99.90;;;;;;7380415;19;20384;-88
2023/02/02 01:11:41;;;;;;;27.92;4.82;;;5.30;99.90;;;;;;7381074;19;20550;-89
2023/02/02 01:14:23;;;;;;;23.98;5.05;;;5.20;99.90;;;;;;7379550;19;20345;-89
2023/02/02 01:17:09;;;;;;;30.25;4.50;;;5.20;99.90;;;;;;7380693;19;20018;-89
2023/02/02 01:19:47;;;;;;;23.52;4.63;;;5.20;99.90;;;;;;7379195;19;20021;-88
2023/02/02 01:22:54;;;;;;;17.70;3.95;;;5.20;99.90;;;;;;7380752;19;20380;-89
2023/02/02 01:25:37;;;;;;;22.88;4.45;;;5.20;99.90;;;;;;7379818;19;20007;-90
2023/02/02 01:28:25;;;;;;;21.02;4.57;;;5.30;99.90;;;;;;7382243;19;20014;-90
2023/02/02 01:31:09;;;;;;;25.13;4.25;;;5.20;99.90;;;;;;7380243;19;20023;-90
2023/02/02 01:34:06;;;;;;;26.13;4.50;;;5.20;99.90;;;;;;7380161;19;20499;-90
2023/02/02 01:36:43;;;;;;;29.75;5.30;;;5.30;99.90;;;;;;7380220;19;20010;-89
2023/02/02 01:39:17;;;;;;;27.58;4.80;;;5.30;99.90;;;;;;7381841;19;20077;-90
2023/02/02 01:41:47;;;;;;;35.05;4.75;;;5.40;99.90;;;;;;7382280;19;20015;-90
2023/02/02 01:44:53;;;;;;;26.45;5.97;;;5.40;99.90;;;;;;7384223;19;20085;-90
2023/02/02 01:47:58;;;;;;;23.25;3.97;;;5.40;99.90;;;;;;7379774;19;20026;-89
2023/02/02 01:50:31;;;;;;;25.42;4.47;;;5.30;99.90;;;;;;7383693;19;20133;-91
2023/02/02 01:53:13;;;;;;;23.60;4.40;;;5.50;99.90;;;;;;7380172;19;20409;-90
2023/02/02 01:56:02;;;;;;;24.67;4.22;;;5.40;99.90;;;;;;7379026;19;20014;-91
2023/02/02 01:58:39;;;;;;;24.58;4.95;;;5.50;99.90;;;;;;7390859;19;20018;-91
2023/02/02 02:01:13;;;;;;;25.85;4.03;;;5.60;99.90;;;;;;7388387;19;20368;-91
2023/02/02 02:04:01;;;;;;;25.05;3.97;;;5.60;99.90;;;;;;7386276;19;20010;-89
2023/02/02 02:06:47;;;;;;;22.05;4.57;;;5.70;99.90;;;;;;7387502;19;20018;-90
2023/02/02 02:09:40;;;;;;;25.50;5.40;;;5.70;99.90;;;;;;7387619;19;20022;-90
2023/02/02 02:12:21;;;;;;;23.50;3.83;;;5.70;99.90;;;;;;7384252;19;20247;-90
2023/02/02 02:18:23;;;;;;;28.88;4.30;;;5.80;99.90;;;;;;7384255;19;20063;-91
2023/02/02 02:28:37;;;;;;;22.95;4.10;;;5.90;99.90;;;;;;7385985;19;20626;-89
2023/02/02 02:31:57;;;;;;;;;;;;;;;;;;;;;
2023/02/02 02:34:53;;;;;;;26.40;4.57;;;6.00;99.90;;;;;;7386080;19;20076;-90
2023/02/02 02:41:34;;;;;;;21.88;3.85;;;6.10;99.90;;;;;;7382965;19;20022;-89
2023/02/02 02:44:11;;;;;;;21.25;4.32;;;6.20;99.90;;;;;;7384617;19;20518;-90
2023/02/02 02:46:43;;;;;;;23.80;3.83;;;6.20;99.90;;;;;;7387274;19;20018;-90
2023/02/02 02:49:24;;;;;;;22.92;4.30;;;6.10;99.90;;;;;;7386503;19;20506;-90
2023/02/02 02:52:06;;;;;;;20.95;4.50;;;6.20;99.90;;;;;;7385301;19;20014;-89
2023/02/02 02:55:06;;;;;;;31.02;4.60;;;6.20;99.90;;;;;;7382504;19;20046;-90
2023/02/02 02:57:36;;;;;;;25.23;3.88;;;6.20;99.90;;;;;;7385902;19;20014;-90
2023/02/02 03:00:38;;;;;;;19.50;4.07;;;6.20;99.90;;;;;;7384568;19;20372;-90
2023/02/02 03:04:03;;;;;;;19.80;3.55;;;6.20;99.90;;;;;;7384339;19;20025;-90
2023/02/02 03:07:01;;;;;;;;;;;;;;;;;;;;;
2023/02/02 03:09:38;;;;;;;25.77;4.40;;;6.30;99.90;;;;;;7384563;19;20042;-90
2023/02/02 03:12:07;;;;;;;19.23;3.75;;;6.20;99.90;;;;;;7386454;19;20424;-90
2023/02/02 03:14:42;;;;;;;19.40;3.92;;;6.30;99.90;;;;;;7383455;19;20039;-91
2023/02/02 03:17:10;;;;;;;15.95;3.75;;;6.40;99.90;;;;;;7387362;19;20011;-90
2023/02/02 03:19:45;;;;;;;15.18;3.65;;;6.30;99.90;;;;;;7386173;19;20019;-90
2023/02/02 03:26:10;;;;;;;9.48;2.08;;;6.40;99.90;;;;;;7387899;19;20081;-90
2023/02/02 03:28:41;;;;;;;11.00;2.13;;;6.30;99.90;;;;;;7384099;19;20429;-89
2023/02/02 03:31:10;;;;;;;11.45;2.65;;;6.30;99.90;;;;;;7379370;19;20018;-89
2023/02/02 03:33:37;;;;;;;13.43;1.90;;;6.20;99.90;;;;;;7384086;19;20049;-89
2023/02/02 03:36:11;;;;;;;13.48;2.67;;;6.20;99.90;;;;;;7381396;19;20031;-89
2023/02/02 03:38:45;;;;;;;12.23;2.20;;;6.20;99.90;;;;;;7380965;19;20372;-88
2023/02/02 03:41:12;;;;;;;13.68;2.58;;;6.10;99.90;;;;;;7383492;19;20015;-88
2023/02/02 03:43:38;;;;;;;10.85;2.35;;;6.10;99.90;;;;;;7380882;19;20018;-88
2023/02/02 03:46:14;;;;;;;14.05;2.80;;;6.10;99.90;;;;;;7381706;19;20491;-88
2023/02/02 03:48:45;;;;;;;15.13;2.50;;;6.10;99.90;;;;;;7379966;19;20031;-88
2023/02/02 03:51:14;;;;;;;13.10;1.77;;;6.10;99.90;;;;;;7382570;19;20019;-88
2023/02/02 03:53:46;;;;;;;9.77;1.98;;;6.10;99.90;;;;;;7379079;19;20073;-88
2023/02/02 03:56:18;;;;;;;13.75;2.53;;;6.10;99.90;;;;;;7382221;19;20015;-89
2023/02/02 03:58:46;;;;;;;8.65;2.20;;;6.10;99.90;;;;;;7382595;19;20018;-89
2023/02/02 04:01:13;;;;;;;10.32;2.40;;;6.00;99.90;;;;;;7381848;19;20025;-89
2023/02/02 04:03:40;;;;;;;17.17;2.38;;;6.00;99.90;;;;;;7380134;19;20022;-89
2023/02/02 04:06:07;;;;;;;11.02;2.42;;;6.00;99.90;;;;;;7382503;19;20029;-89
2023/02/02 04:08:34;;;;;;;12.48;2.63;;;6.00;99.90;;;;;;7378962;19;20018;-89
2023/02/02 04:11:00;;;;;;;11.20;1.80;;;5.90;99.90;;;;;;7383135;19;20021;-89
2023/02/02 04:13:29;;;;;;;11.25;1.75;;;5.90;99.90;;;;;;7383155;19;20011;-87
2023/02/02 04:16:00;;;;;;;13.82;2.45;;;5.80;99.90;;;;;;7379038;19;20025;-87
2023/02/02 04:18:31;;;;;;;12.20;2.30;;;5.80;99.90;;;;;;7382204;19;20014;-87
2023/02/02 04:21:01;;;;;;;9.77;1.75;;;5.80;99.90;;;;;;7380672;19;20019;-86
2023/02/02 04:23:29;;;;;;;10.13;2.42;;;5.80;99.90;;;;;;7379059;19;20018;-87
2023/02/02 04:25:57;;;;;;;10.63;2.15;;;5.70;99.90;;;;;;7379683;19;20082;-87
2023/02/02 04:28:27;;;;;;;15.88;2.65;;;5.70;99.90;;;;;;7382963;19;20015;-88
2023/02/02 04:30:54;;;;;;;12.75;2.50;;;5.70;99.90;;;;;;7377329;19;20047;-88
2023/02/02 04:33:25;;;;;;;12.13;2.25;;;5.70;99.90;;;;;;7379319;19;20506;-87
2023/02/02 04:35:51;;;;;;;11.23;1.80;;;5.60;99.90;;;;;;7378106;19;20502;-88
2023/02/02 04:38:18;;;;;;;13.30;1.83;;;5.60;99.90;;;;;;7378015;19;20021;-88
2023/02/02 04:40:46;;;;;;;11.98;2.10;;;5.60;99.90;;;;;;7381100;19;20029;-88
2023/02/02 04:43:13;;;;;;;12.02;1.60;;;5.60;99.90;;;;;;7380340;19;20391;-88
2023/02/02 04:45:42;;;;;;;18.95;2.47;;;5.60;99.90;;;;;;7377161;19;20111;-88
2023/02/02 04:48:10;;;;;;;10.93;2.42;;;5.60;99.90;;;;;;7380975;19;20031;-88
2023/02/02 04:50:36;;;;;;;12.48;2.17;;;5.50;99.90;;;;;;7379245;19;20021;-87
2023/02/02 04:53:04;;;;;;;12.07;2.25;;;5.50;99.90;;;;;;7379733;19;20006;-88
2023/02/02 04:55:36;;;;;;;13.35;2.50;;;5.50;99.90;;;;;;7377438;19;20014;-88
2023/02/02 04:58:06;;;;;;;16.67;2.63;;;5.60;99.90;;;;;;7381369;19;20023;-88
2023/02/02 05:00:32;;;;;;;11.70;2.00;;;5.60;99.90;;;;;;7378763;19;20494;-88
2023/02/02 05:03:11;;;;;;;13.75;2.30;;;5.60;99.90;;;;;;7379634;19;20014;-88
2023/02/02 05:05:38;;;;;;;9.77;2.00;;;5.60;99.90;;;;;;7378718;19;20022;-88
2023/02/02 05:08:08;;;;;;;16.27;2.20;;;5.50;99.90;;;;;;7380517;19;20018;-89
2023/02/02 05:10:34;;;;;;;15.43;2.78;;;5.60;99.90;;;;;;7378263;19;20530;-88
2023/02/02 05:13:01;;;;;;;15.32;2.97;;;5.50;99.90;;;;;;7379853;19;20019;-89
2023/02/02 05:15:29;;;;;;;11.50;2.10;;;5.60;99.90;;;;;;7376652;19;20581;-89
2023/02/02 05:18:42;;;;;;;;;;;;;;;;;;;;;
2023/02/02 05:22:42;;;;;;;12.10;2.60;;;5.50;99.90;;;;;;7380309;19;20371;-89
2023/02/02 05:26:57;;;;;;;;;;;;;;;;;;;;;
2023/02/02 05:31:08;;;;;;;12.73;2.38;;;5.50;99.90;;;;;;7368167;19;20376;-89
2023/02/02 05:34:13;;;;;;;8.43;2.00;;;5.50;99.90;;;;;;7379972;19;20017;-88
2023/02/02 05:37:41;;;;;;;9.02;1.92;;;5.50;99.90;;;;;;7381329;19;20425;-89
2023/02/02 05:40:56;;;;;;;10.25;2.17;;;5.50;99.90;;;;;;7379195;19;20018;-89
2023/02/02 05:44:03;;;;;;;13.10;2.42;;;5.50;99.90;;;;;;7388215;19;20010;-89
2023/02/02 05:47:36;;;;;;;;;;;;;;;;;;;;;
2023/02/02 05:50:41;;;;;;;;;;;;;;;;;;;;;
2023/02/02 05:53:34;;;;;;;7.88;1.80;;;5.40;99.90;;;;;;7382826;19;20011;-88
2023/02/02 05:56:10;;;;;;;10.27;2.42;;;5.50;99.90;;;;;;7379617;19;20015;-89
2023/02/02 06:07:58;;;;;;;;;;;;;;;;;;;;;
2023/02/02 06:12:17;;;;;;;;;;;;;;;;;;;;;
2023/02/02 06:37:40;;;;;;;;;;;;;;;;;;;;;
2023/02/02 06:45:23;;;;;;;7.57;2.20;;;5.30;99.90;;;;;;7397579;19;20026;-88
2023/02/02 06:52:18;;;;;;;11.07;2.20;;;5.40;99.90;;;;;;7397437;19;21392;-88
2023/02/02 06:55:30;;;;;;;9.45;2.53;;;5.40;99.90;;;;;;7401050;19;20021;-87
2023/02/02 07:01:34;;;;;;;11.65;2.72;;;5.30;99.90;;;;;;7379712;19;20017;-87
2023/02/02 07:04:14;;;;;;;13.68;3.00;;;5.30;99.90;;;;;;7379916;19;20043;-88
2023/02/02 07:06:57;;;;;;;;;;;;;;;;;;;;;
2023/02/02 07:11:09;;;;;;;12.25;3.13;;;5.40;99.90;;;;;;7380575;19;20010;-88
2023/02/02 07:18:48;;;;;;;;;;;;;;;;;;;;;
2023/02/02 07:25:25;;;;;;;12.95;4.70;;;5.40;99.90;;;;;;7373980;19;20064;-88
2023/02/02 07:44:58;;;;;;;12.07;5.30;;;5.50;99.90;;;;;;7369895;19;20033;-86
2023/02/02 07:47:30;;;;;;;16.38;6.63;;;5.50;99.90;;;;;;7371539;19;20052;-84
2023/02/02 07:50:29;;;;;;;11.50;5.93;;;5.50;99.90;;;;;;7380306;19;20015;-86
2023/02/02 08:02:02;;;;;;;11.70;6.50;;;5.60;99.90;;;;;;7376653;19;20030;-86
2023/02/02 11:35:36;;;;;;;6.05;2.20;;;7.20;99.90;;;;;;7377608;19;20014;-90
2023/02/02 11:39:23;;;;;;;5.50;1.70;;;7.20;99.90;;;;;;7401877;19;20781;-62
2023/02/02 11:41:57;;;;;;;4.88;1.75;;;7.10;99.90;;;;;;7406297;19;20515;-63
2023/02/02 11:44:28;;;;;;;6.10;1.95;;;7.10;99.90;;;;;;7404988;19;20023;-63
2023/02/02 11:46:56;;;;;;;4.57;1.70;;;7.10;99.90;;;;;;7406212;19;20037;-63
2023/02/02 11:49:23;;;;;;;9.52;2.08;;;7.10;99.90;;;;;;7403851;19;20093;-61
2023/02/02 11:52:02;;;;;;;5.93;1.73;;;7.10;99.90;;;;;;7402978;19;20018;-63
2023/02/02 11:54:35;;;;;;;4.35;1.95;;;7.10;99.90;;;;;;7402025;19;20018;-62
2023/02/02 11:57:07;;;;;;;4.40;2.00;;;7.10;99.90;;;;;;7403262;19;20022;-62
2023/02/02 11:59:43;;;;;;;5.43;1.48;;;7.10;99.90;;;;;;7401366;19;20022;-62
2023/02/02 12:02:20;;;;;;;7.55;1.70;;;7.10;99.90;;;;;;7402705;19;20496;-62
2023/02/02 12:04:48;;;;;;;6.65;1.70;;;7.10;99.90;;;;;;7401447;19;20022;-61
2023/02/02 12:07:21;;;;;;;4.03;1.38;;;7.10;99.90;;;;;;7401443;19;20019;-62
2023/02/02 12:09:50;;;;;;;7.97;1.40;;;7.10;99.90;;;;;;7403899;19;20039;-63
2023/02/02 12:12:35;;;;;;;6.10;1.17;;;7.10;99.90;;;;;;7406004;19;20010;-62
2023/02/02 12:15:11;;;;;;;6.55;1.38;;;7.00;99.90;;;;;;7399945;19;20069;-63
2023/02/02 12:17:42;;;;;;;7.78;1.98;;;7.00;99.90;;;;;;7400258;19;20022;-62
2023/02/02 12:20:26;;;;;;;9.37;1.67;;;6.90;99.90;;;;;;7404425;19;20018;-62
2023/02/02 12:23:17;;;;;;;3.50;1.30;;;7.00;99.90;;;;;;7404525;19;20023;-62
2023/02/02 12:25:49;;;;;;;3.67;1.27;;;6.90;99.90;;;;;;7399571;19;20370;-62
2023/02/02 12:28:44;;;;;;;3.90;1.42;;;6.90;99.90;;;;;;7403835;19;20018;-62
2023/02/02 12:31:28;;;;;;;7.22;1.52;;;6.90;99.90;;;;;;7401475;19;20436;-64
2023/02/02 12:33:58;;;;;;;4.88;1.35;;;6.90;99.90;;;;;;7400026;19;20121;-64
2023/02/02 12:36:49;;;;;;;5.30;1.35;;;6.90;99.90;;;;;;7404147;19;20018;-65
2023/02/02 12:39:29;;;;;;;6.07;1.58;;;6.90;99.90;;;;;;7399493;19;20361;-65
2023/02/02 12:42:10;;;;;;;5.25;1.63;;;6.90;99.90;;;;;;7402478;19;20026;-64
2023/02/02 12:44:42;;;;;;;10.32;1.90;;;6.90;99.90;;;;;;7403877;19;20031;-64
2023/02/02 12:47:32;;;;;;;7.80;1.83;;;6.90;99.90;;;;;;7398509;19;20019;-65
2023/02/02 12:50:14;;;;;;;7.65;1.60;;;6.90;99.90;;;;;;7383367;19;20142;-64
2023/02/02 12:52:57;;;;;;;9.60;1.67;;;6.90;99.90;;;;;;7374465;19;20022;-63
2023/02/02 12:55:45;;;;;;;9.57;1.75;;;6.90;99.90;;;;;;7373692;19;20053;-63
2023/02/02 12:58:20;;;;;;;9.15;1.92;;;6.90;99.90;;;;;;7371636;19;20039;-64
2023/02/02 13:01:02;;;;;;;8.15;1.63;;;6.80;99.90;;;;;;7375913;19;20082;-63
2023/02/02 13:03:43;;;;;;;7.35;1.42;;;6.80;99.90;;;;;;7376978;19;20018;-64
2023/02/02 13:06:16;;;;;;;8.73;2.28;;;6.90;99.90;;;;;;7375242;19;20481;-64
2023/02/02 13:08:51;;;;;;;9.98;2.30;;;6.80;99.90;;;;;;7376571;19;20023;-65
2023/02/02 13:11:34;;;;;;;7.07;2.60;;;6.80;99.90;;;;;;7378321;19;20023;-65
2023/02/02 13:14:20;;;;;;;6.50;2.50;;;6.90;99.90;;;;;;7373728;19;20023;-65
2023/02/02 13:16:50;;;;;;;12.32;2.50;;;6.90;99.90;;;;;;7375827;19;20029;-65
2023/02/02 13:19:37;;;;;;;11.50;2.57;;;6.80;99.90;;;;;;7372869;19;20846;-65
2023/02/02 13:22:09;;;;;;;7.65;2.35;;;6.80;99.90;;;;;;7370193;19;20035;-68
2023/02/02 13:24:40;;;;;;;12.25;2.70;;;6.70;99.90;;;;;;7373769;19;20603;-65
2023/02/02 13:27:11;;;;;;;11.27;2.63;;;6.70;99.90;;;;;;7375011;19;20018;-65
2023/02/02 13:29:49;;;;;;;8.60;2.63;;;6.70;99.90;;;;;;7370060;19;20018;-64
2023/02/02 13:32:35;;;;;;;5.38;2.17;;;6.80;99.90;;;;;;7371929;19;20026;-65
2023/02/02 13:35:31;;;;;;;7.80;2.92;;;6.80;99.90;;;;;;7372683;19;20548;-63
2023/02/02 13:38:09;;;;;;;8.05;2.72;;;6.80;99.90;;;;;;7370187;19;20025;-64
2023/02/02 13:40:40;;;;;;;12.13;4.13;;;6.80;99.90;;;;;;7368821;19;20628;-62
2023/02/02 13:43:33;;;;;;;9.40;3.35;;;6.70;99.90;;;;;;7371089;19;20102;-62
2023/02/02 13:46:23;;;;;;;9.70;3.53;;;6.80;99.90;;;;;;7368527;19;20018;-64
2023/02/02 13:49:07;;;;;;;12.48;3.88;;;6.80;99.90;;;;;;7374442;19;20023;-65
2023/02/02 13:51:54;;;;;;;12.90;4.93;;;6.80;99.90;;;;;;7371009;19;20054;-63
2023/02/02 13:54:57;;;;;;;11.05;5.47;;;6.80;99.90;;;;;;7369986;19;20025;-64
2023/02/02 13:57:59;;;;;;;14.35;6.70;;;6.90;99.90;;;;;;7368263;19;20015;-64
2023/02/02 14:00:32;;;;;;;17.08;8.18;;;6.90;99.90;;;;;;7370588;19;20015;-64
2023/02/02 14:03:03;;;;;;;15.82;9.25;;;6.90;99.90;;;;;;7370715;19;20615;-63
2023/02/02 14:05:43;;;;;;;23.50;9.68;;;7.00;99.90;;;;;;7374354;19;20018;-63
2023/02/02 14:08:21;;;;;;;19.05;11.02;;;7.10;99.90;;;;;;7368256;19;20166;-64
2023/02/02 14:10:53;;;;;;;32.80;12.90;;;7.00;99.90;;;;;;7371869;19;20059;-64
2023/02/02 14:16:22;;;;;;;34.15;13.68;;;7.20;99.90;;;;;;7367274;19;20022;-64
2023/02/02 14:18:49;;;;;;;36.80;14.43;;;7.20;99.90;;;;;;7368753;19;20026;-65
2023/02/02 14:21:31;;;;;;;36.83;14.63;;;7.30;99.90;;;;;;7372544;19;20098;-65
2023/02/02 14:24:01;;;;;;;33.05;13.38;;;7.40;99.90;;;;;;7372725;19;20106;-65
2023/02/02 14:26:48;;;;;;;39.28;13.35;;;7.40;99.90;;;;;;7372512;19;20082;-65
2023/02/02 14:29:30;;;;;;;31.15;12.85;;;7.40;99.90;;;;;;7373848;19;20477;-65
2023/02/02 14:32:22;;;;;;;29.48;12.85;;;7.50;99.90;;;;;;7372924;19;20014;-66
2023/02/02 14:34:57;;;;;;;28.10;12.40;;;7.50;99.90;;;;;;7376911;19;20015;-65
2023/02/02 14:37:23;;;;;;;29.05;11.13;;;7.50;99.90;;;;;;7370390;19;20018;-65
2023/02/02 14:40:11;;;;;;;24.08;10.55;;;7.50;99.90;;;;;;7375027;19;20022;-65
2023/02/02 14:45:40;;;;;;;;;;;7.60;99.90;;;;;;7368887;19;20014;-63
2023/02/02 14:48:20;;;;;;;17.25;8.80;;;7.60;99.90;;;;;;7369021;19;19923;-63
2023/02/02 14:50:50;;;;;;;22.45;9.00;;;7.60;99.90;;;;;;7372854;19;20014;-64
2023/02/02 14:53:17;;;;;;;21.27;8.70;;;7.60;99.90;;;;;;7372082;19;20018;-64
2023/02/02 14:56:14;;;;;;;20.23;9.25;;;7.60;99.90;;;;;;7369623;19;20022;-63
2023/02/02 14:58:56;;;;;;;21.92;8.00;;;7.70;99.90;;;;;;7369872;19;20026;-64
2023/02/02 15:01:27;;;;;;;17.85;7.30;;;7.60;99.90;;;;;;7370239;19;20026;-64
2023/02/02 15:04:20;;;;;;;23.73;9.23;;;7.60;99.90;;;;;;7372056;19;20118;-64
2023/02/02 15:06:48;;;;;;;16.08;8.57;;;7.60;99.90;;;;;;7364681;19;20023;-63
2023/02/02 15:09:26;;;;;;;19.50;8.23;;;7.60;99.90;;;;;;7364437;19;20771;-63
2023/02/02 15:12:01;;;;;;;22.25;9.00;;;7.60;99.90;;;;;;7366814;19;20847;-63
2023/02/02 15:14:34;;;;;;;21.05;8.23;;;7.60;99.90;;;;;;7364420;19;20018;-63
2023/02/02 15:17:11;;;;;;;15.93;7.85;;;7.60;99.90;;;;;;7368497;19;20497;-63
2023/02/02 15:19:41;;;;;;;17.30;8.57;;;7.60;99.90;;;;;;7357772;19;20580;-64
2023/02/02 15:22:33;;;;;;;19.48;8.65;;;7.60;99.90;;;;;;7363197;19;20060;-63
2023/02/02 15:25:16;;;;;;;21.85;8.23;;;7.60;99.90;;;;;;7367678;19;20020;-64
2023/02/02 15:27:50;;;;;;;22.20;9.23;;;7.60;99.90;;;;;;7364610;19;20033;-64
2023/02/02 15:30:17;;;;;;;24.23;9.55;;;7.60;99.90;;;;;;7368749;19;20018;-64
2023/02/02 15:32:44;;;;;;;26.80;9.38;;;7.60;99.90;;;;;;7365204;19;20025;-65
2023/02/02 15:35:19;;;;;;;27.60;10.07;;;7.60;99.90;;;;;;7368702;19;20022;-64
2023/02/02 15:37:51;;;;;;;23.13;10.02;;;7.60;99.90;;;;;;7365151;19;20045;-64
2023/02/02 15:40:24;;;;;;;25.55;11.32;;;7.60;99.90;;;;;;7369036;19;20081;-65
2023/02/02 15:43:04;;;;;;;27.20;10.88;;;7.60;99.90;;;;;;7365546;19;20015;-65
2023/02/02 15:45:45;;;;;;;28.15;11.25;;;7.60;99.90;;;;;;7368683;19;20397;-65
2023/02/02 15:48:20;;;;;;;33.47;11.98;;;7.60;99.90;;;;;;7368806;19;20011;-64
2023/02/02 15:50:49;;;;;;;28.35;10.70;;;7.60;99.90;;;;;;7370923;19;20030;-63
2023/02/02 15:53:28;;;;;;;24.38;11.15;;;7.60;99.90;;;;;;7373301;19;20011;-63
2023/02/02 15:55:56;;;;;;;35.90;10.50;;;7.60;99.90;;;;;;7369516;19;20018;-63
2023/02/02 15:58:26;;;;;;;25.35;11.00;;;7.60;99.90;;;;;;7367589;19;20015;-64
2023/02/02 16:00:59;;;;;;;35.45;12.13;;;7.60;99.90;;;;;;7370419;19;20403;-63
2023/02/02 16:03:35;;;;;;;30.75;11.80;;;7.60;99.90;;;;;;7371638;19;20618;-63
2023/02/02 16:06:05;;;;;;;27.85;11.60;;;7.60;99.90;;;;;;7370390;19;20040;-63
2023/02/02 16:08:35;;;;;;;26.48;10.70;;;7.60;99.90;;;;;;7371048;19;20779;-62
2023/02/02 16:11:07;;;;;;;28.55;11.23;;;7.60;99.90;;;;;;7370697;19;20021;-63
2023/02/02 16:13:34;;;;;;;30.02;11.60;;;7.60;99.90;;;;;;7373182;19;20044;-63
2023/02/02 16:16:04;;;;;;;32.67;11.27;;;7.60;99.90;;;;;;7371450;19;20410;-64
2023/02/02 16:18:31;;;;;;;28.08;11.40;;;7.60;99.90;;;;;;7368276;19;20030;-62
2023/02/02 16:21:02;;;;;;;24.17;11.63;;;7.60;99.90;;;;;;7367849;19;20018;-63
2023/02/02 16:23:33;;;;;;;20.80;10.43;;;7.60;99.90;;;;;;7369434;19;20018;-63
2023/02/02 16:26:03;;;;;;;21.97;10.03;;;7.60;99.90;;;;;;7380723;19;20118;-63
2023/02/02 16:28:31;;;;;;;21.60;10.15;;;7.60;99.90;;;;;;7378256;19;20860;-64
2023/02/02 16:31:02;;;;;;;19.17;10.20;;;7.70;99.90;;;;;;7375728;19;20018;-65
2023/02/02 16:33:40;;;;;;;23.92;11.45;;;7.60;99.90;;;;;;7382519;19;20532;-65
2023/02/02 16:36:28;;;;;;;20.50;9.93;;;7.60;99.90;;;;;;7383326;19;20062;-65
2023/02/02 16:38:56;;;;;;;22.67;10.77;;;7.60;99.90;;;;;;7377299;19;20018;-65
2023/02/02 16:41:33;;;;;;;22.90;10.75;;;7.60;99.90;;;;;;7376627;19;20022;-65
2023/02/02 16:44:41;;;;;;;22.10;10.25;;;7.60;99.90;;;;;;7377924;19;20021;-65
2023/02/02 16:47:30;;;;;;;20.05;10.00;;;7.60;99.90;;;;;;7372198;19;20030;-65
2023/02/02 16:50:06;;;;;;;19.13;9.65;;;7.60;99.90;;;;;;7377410;19;20389;-65
2023/02/02 16:52:46;;;;;;;17.17;9.60;;;7.60;99.90;;;;;;7374442;19;20523;-65
2023/02/02 16:55:16;;;;;;;18.27;8.93;;;7.60;99.90;;;;;;7376480;19;20038;-64
2023/02/02 16:57:44;;;;;;;21.50;9.45;;;7.60;99.90;;;;;;7376641;19;20023;-66
2023/02/02 17:00:22;;;;;;;21.15;11.23;;;7.60;99.90;;;;;;7375982;19;20021;-64
2023/02/02 17:02:53;;;;;;;24.55;11.50;;;7.70;99.90;;;;;;7376826;19;20026;-66
2023/02/02 17:05:29;;;;;;;20.95;11.85;;;7.70;99.90;;;;;;7376886;19;20033;-64
2023/02/02 17:08:03;;;;;;;21.17;11.80;;;7.70;99.90;;;;;;7377480;19;20021;-64
2023/02/02 17:10:33;;;;;;;24.27;12.45;;;7.80;99.90;;;;;;7375589;19;20018;-64
2023/02/02 17:13:01;;;;;;;20.50;12.45;;;7.70;99.90;;;;;;7376349;19;20014;-63
2023/02/02 17:15:31;;;;;;;23.95;12.90;;;7.80;99.90;;;;;;7371654;19;20028;-64
2023/02/02 17:17:58;;;;;;;23.80;12.77;;;7.80;99.90;;;;;;7376489;19;20022;-63
2023/02/02 17:20:25;;;;;;;23.00;13.55;;;7.80;99.90;;;;;;7373040;19;20082;-64
2023/02/02 17:23:02;;;;;;;27.00;14.30;;;7.80;99.90;;;;;;7378068;19;20018;-65
2023/02/02 17:25:34;;;;;;;25.58;14.20;;;7.80;99.90;;;;;;7375254;19;20027;-64
2023/02/02 17:28:01;;;;;;;;;;;7.90;99.90;;;;;;7377348;19;20025;-64
2023/02/02 17:30:29;;;;;;;31.17;14.27;;;7.80;99.90;;;;;;7374997;19;19930;-64
2023/02/02 17:32:55;;;;;;;25.05;14.38;;;7.90;99.90;;;;;;7376795;19;20707;-64
2023/02/02 17:35:24;;;;;;;25.77;14.15;;;7.90;99.90;;;;;;7371340;19;20014;-64
2023/02/02 17:37:51;;;;;;;31.83;15.60;;;7.90;99.90;;;;;;7374295;19;20030;-63
2023/02/02 17:40:20;;;;;;;30.90;14.77;;;7.90;99.90;;;;;;7369221;19;20018;-64
2023/02/02 17:42:49;;;;;;;29.88;15.05;;;7.90;99.90;;;;;;7375038;19;20022;-65
2023/02/02 17:45:27;;;;;;;29.38;14.88;;;8.00;99.90;;;;;;7373059;19;20019;-64
2023/02/02 17:47:54;;;;;;;26.58;14.93;;;8.00;99.90;;;;;;7378816;19;20098;-65
2023/02/02 17:50:21;;;;;;;32.47;15.15;;;8.00;99.90;;;;;;7375294;19;20011;-65
2023/02/02 17:52:49;;;;;;;27.48;13.70;;;8.00;99.90;;;;;;7377095;19;20025;-65
2023/02/02 17:55:19;;;;;;;26.10;13.48;;;8.00;99.90;;;;;;7372997;19;20026;-64
2023/02/02 17:57:49;;;;;;;27.27;13.68;;;8.00;99.90;;;;;;7374457;19;20015;-64
2023/02/02 18:00:18;;;;;;;28.73;14.35;;;8.00;99.90;;;;;;7374911;19;20025;-64
2023/02/02 18:02:47;;;;;;;22.67;13.75;;;8.00;99.90;;;;;;7375030;19;20389;-64
2023/02/02 18:05:15;;;;;;;25.73;12.00;;;8.00;99.90;;;;;;7374935;19;20347;-64
2023/02/02 18:07:42;;;;;;;28.05;12.70;;;8.00;99.90;;;;;;7376320;19;20481;-64
2023/02/02 18:10:11;;;;;;;29.77;12.15;;;8.00;99.90;;;;;;7375701;19;20041;-63
2023/02/02 18:12:38;;;;;;;31.02;13.35;;;7.90;99.90;;;;;;7373329;19;20037;-63
2023/02/02 18:15:07;;;;;;;31.45;11.88;;;8.00;99.90;;;;;;7373155;19;20392;-64
2023/02/02 18:17:34;;;;;;;28.05;13.07;;;7.90;99.90;;;;;;7372714;19;20019;-64
2023/02/02 18:20:00;;;;;;;30.60;13.32;;;7.90;99.90;;;;;;7378672;19;20018;-64
2023/02/02 18:22:26;;;;;;;32.92;14.40;;;7.90;99.90;;;;;;7371318;19;20025;-64
2023/02/02 18:24:52;;;;;;;33.10;14.60;;;7.90;99.90;;;;;;7375051;19;20616;-63
2023/02/02 18:27:19;;;;;;;38.00;18.92;;;7.90;99.90;;;;;;7373255;19;20025;-57
2023/02/02 18:29:46;;;;;;;50.30;30.50;;;7.90;99.90;;;;;;7373606;19;20029;-63
2023/02/02 18:32:14;;;;;;;39.22;16.30;;;7.90;99.90;;;;;;7365641;19;20499;-64
2023/02/02 18:34:40;;;;;;;36.15;17.33;;;7.90;99.90;;;;;;7371076;19;20027;-63
2023/02/02 18:37:07;;;;;;;32.63;15.25;;;7.90;99.90;;;;;;7368716;19;20472;-63
2023/02/02 18:39:33;;;;;;;34.58;16.25;;;7.80;99.90;;;;;;7356759;19;20022;-63
2023/02/02 18:42:01;;;;;;;31.10;15.10;;;7.70;99.90;;;;;;7364751;19;20666;-63
2023/02/02 18:44:28;;;;;;;32.22;15.32;;;7.80;99.90;;;;;;7365807;19;20824;-63
2023/02/02 18:47:00;;;;;;;31.48;15.13;;;7.80;99.90;;;;;;7366362;19;20026;-64
2023/02/02 18:49:26;;;;;;;36.08;14.25;;;7.80;99.90;;;;;;7358500;19;20499;-63
2023/02/02 18:51:53;;;;;;;27.20;13.40;;;7.80;99.90;;;;;;7361853;19;20118;-63
2023/02/02 18:54:19;;;;;;;29.17;13.25;;;7.70;99.90;;;;;;7363542;19;20757;-63
2023/02/02 18:56:46;;;;;;;28.85;10.90;;;7.70;99.90;;;;;;7366117;19;20018;-62
2023/02/02 18:59:12;;;;;;;28.83;11.95;;;7.70;99.90;;;;;;7362506;19;20022;-63
2023/02/02 19:01:38;;;;;;;26.10;10.30;;;7.70;99.90;;;;;;7368389;19;20386;-65
2023/02/02 19:04:05;;;;;;;29.05;9.93;;;7.70;99.90;;;;;;7364735;19;20028;-64
2023/02/02 19:09:16;;;;;;;20.65;9.30;;;7.70;99.90;;;;;;7363920;19;20026;-64
2023/02/02 19:11:48;;;;;;;28.00;9.48;;;7.70;99.90;;;;;;7365100;19;20014;-63
2023/02/02 19:14:29;;;;;;;28.83;9.20;;;7.70;99.90;;;;;;7367525;19;20101;-63
2023/02/02 19:17:06;;;;;;;22.52;8.55;;;7.70;99.90;;;;;;7367878;19;20014;-62
2023/02/02 19:19:33;;;;;;;22.27;8.00;;;7.70;99.90;;;;;;7369149;19;20022;-62
2023/02/02 19:22:06;;;;;;;20.70;7.70;;;7.70;99.90;;;;;;7368514;19;20015;-62
2023/02/02 19:24:38;;;;;;;25.75;7.57;;;7.70;99.90;;;;;;7369400;19;20098;-62
2023/02/02 19:27:31;;;;;;;23.00;7.68;;;7.70;99.90;;;;;;7369987;19;20040;-62
2023/02/02 19:30:01;;;;;;;21.15;7.65;;;7.70;99.90;;;;;;7370306;19;20860;-62
2023/02/02 19:32:31;;;;;;;19.33;7.68;;;7.70;99.90;;;;;;7367561;19;20019;-61
2023/02/02 19:35:04;;;;;;;22.02;7.50;;;7.70;99.90;;;;;;7371671;19;20015;-62
2023/02/02 19:37:36;;;;;;;19.15;7.25;;;7.70;99.90;;;;;;7368170;19;21028;-62
2023/02/02 19:40:08;;;;;;;;;;;7.80;99.90;;;;;;7364219;19;20746;-62
2023/02/02 19:42:39;;;;;;;;;;;7.80;99.90;;;;;;7367724;19;19940;-62
2023/02/02 19:45:26;;;;;;;23.20;7.25;;;7.80;99.90;;;;;;7362952;19;19930;-62